Observation data for Hereford on 12/08/2018      Previous  Date       Current Mesonet Observations  Soil Data  Daily Summary Page  Observations in Plain Language
KHES 080600Z 09004KT 00/03 A3029 RMK A01 T00000-32  RH  079%=      5-min Rain = 0
KHES 080605Z 09005KT 00/03 A3029 RMK A01 T00000-32  RH  080%=      5-min Rain = 0
KHES 080610Z 09004KT 00/03 A3029 RMK A01 T00000-32  RH  080%=      5-min Rain = 0
KHES 080615Z 08004KT 00/03 A3029 RMK A01 T00-00-32  RH  079%=      5-min Rain = 0
KHES 080620Z 07005KT 00/03 A3029 RMK A01 T00-00-33  RH  079%=      5-min Rain = 0
KHES 080625Z 07004KT M00/M03 A3029 RMK A01 T10011034  RH  079%=      5-min Rain = 0
KHES 080630Z 06005KT M00/M03 A3028 RMK A01 T10011034  RH  079%=      5-min Rain = 0
KHES 080635Z 06005KT M00/M03 A3028 RMK A01 T10011033  RH  079%=      5-min Rain = 0
KHES 080640Z 06005KT M00/M03 A3028 RMK A01 T10011033  RH  079%=      5-min Rain = 0
KHES 080645Z 05005KT M00/M03 A3028 RMK A01 T10011033  RH  079%=      5-min Rain = 0
KHES 080650Z 06005KT M00/M03 A3028 RMK A01 T10011032  RH  080%=      5-min Rain = 0
KHES 080655Z 05006KT M00/M03 A3028 RMK A01 T10011032  RH  080%=      5-min Rain = 0
KHES 080700Z 06005KT M00/M03 A3028 RMK A01 T10011032  RH  080%=      5-min Rain = 0
KHES 080705Z 06005KT M00/M03 A3028 RMK A01 T10011031  RH  080%=      5-min Rain = 0
KHES 080710Z 05004KT M00/M03 A3028 RMK A01 T10011031  RH  081%=      5-min Rain = 0
KHES 080715Z 04004KT M00/M03 A3028 RMK A01 T10011031  RH  081%=      5-min Rain = 0
KHES 080720Z 03005KT M00/M03 A3028 RMK A01 T10011030  RH  081%=      5-min Rain = 0
KHES 080725Z 03004KT M00/M03 A3027 RMK A01 T10011030  RH  081%=      5-min Rain = 0
KHES 080730Z 03005KT M00/M03 A3027 RMK A01 T10011031  RH  081%=      5-min Rain = 0
KHES 080735Z 03005KT M00/M03 A3028 RMK A01 T10011032  RH  080%=      5-min Rain = 0
KHES 080740Z 03005KT M00/M03 A3027 RMK A01 T10011033  RH  080%=      5-min Rain = 0
KHES 080745Z 03006KT M00/M03 A3027 RMK A01 T10011034  RH  079%=      5-min Rain = 0
KHES 080750Z 03005KT M00/M04 A3027 RMK A01 T10011036  RH  078%=      5-min Rain = 0
KHES 080755Z 03005KT M00/M04 A3027 RMK A01 T10011038  RH  077%=      5-min Rain = 0
KHES 080800Z 04006KT M00/M04 A3027 RMK A01 T10011039  RH  076%=      5-min Rain = 0
KHES 080805Z 04005KT M00/M04 A3027 RMK A01 T10011040  RH  076%=      5-min Rain = 0
KHES 080810Z 03005KT M00/M04 A3027 RMK A01 T10011040  RH  075%=      5-min Rain = 0
KHES 080815Z 04005KT M00/M04 A3027 RMK A01 T10011040  RH  075%=      5-min Rain = 0
KHES 080820Z 03005KT M00/M04 A3027 RMK A01 T10011040  RH  075%=      5-min Rain = 0
KHES 080825Z 03005KT M00/M04 A3027 RMK A01 T10011040  RH  075%=      5-min Rain = 0
KHES 080830Z 03005KT M00/M04 A3027 RMK A01 T10011041  RH  075%=      5-min Rain = 0
KHES 080835Z 03006KT M00/M04 A3027 RMK A01 T10011041  RH  075%=      5-min Rain = 0
KHES 080840Z 03006KT M00/M04 A3027 RMK A01 T10021041  RH  075%=      5-min Rain = 0
KHES 080845Z 03007KT M00/M04 A3027 RMK A01 T10021042  RH  075%=      5-min Rain = 0
KHES 080850Z 03006KT M00/M04 A3027 RMK A01 T10021042  RH  074%=      5-min Rain = 0
KHES 080855Z 03006KT M00/M04 A3027 RMK A01 T10021042  RH  075%=      5-min Rain = 0
KHES 080900Z 03005KT M00/M04 A3027 RMK A01 T10021042  RH  075%=      5-min Rain = 0
KHES 080905Z 03006KT M00/M04 A3027 RMK A01 T10021042  RH  075%=      5-min Rain = 0
KHES 080910Z 02007KT M00/M04 A3026 RMK A01 T10031042  RH  075%=      5-min Rain = 0
KHES 080915Z 02008KT M00/M04 A3027 RMK A01 T10031043  RH  075%=      5-min Rain = 0
KHES 080920Z 02007KT M00/M05 A3027 RMK A01 T10041045  RH  074%=      5-min Rain = 0
KHES 080925Z 02007KT M00/M05 A3027 RMK A01 T10041045  RH  074%=      5-min Rain = 0
KHES 080930Z 02008KT M01/M05 A3026 RMK A01 T10051045  RH  074%=      5-min Rain = 0
KHES 080935Z 02008KT M01/M05 A3026 RMK A01 T10051045  RH  075%=      5-min Rain = 0
KHES 080940Z 02006KT M01/M05 A3026 RMK A01 T10051045  RH  075%=      5-min Rain = 0
KHES 080945Z 02007KT M01/M05 A3026 RMK A01 T10061045  RH  075%=      5-min Rain = 0
KHES 080950Z 02007KT M01/M05 A3026 RMK A01 T10061045  RH  075%=      5-min Rain = 0
KHES 080955Z 03007KT M01/M04 A3026 RMK A01 T10061044  RH  076%=      5-min Rain = 0
KHES 081000Z 02007KT M01/M04 A3026 RMK A01 T10061043  RH  076%=      5-min Rain = 0
KHES 081005Z 02009KT M01/M04 A3026 RMK A01 T10061044  RH  076%=      5-min Rain = 0
KHES 081010Z 02008KT M01/M04 A3026 RMK A01 T10071044  RH  076%=      5-min Rain = 0
KHES 081015Z 02007KT M01/M04 A3025 RMK A01 T10071044  RH  076%=      5-min Rain = 0
KHES 081020Z 02007KT M01/M04 A3025 RMK A01 T10071044  RH  077%=      5-min Rain = 0
KHES 081025Z 02007KT M01/M04 A3025 RMK A01 T10071043  RH  077%=      5-min Rain = 0
KHES 081030Z 02007KT M01/M04 A3025 RMK A01 T10081043  RH  077%=      5-min Rain = 0
KHES 081035Z 02008KT M01/M04 A3025 RMK A01 T10081044  RH  077%=      5-min Rain = 0
KHES 081040Z 02007KT M01/M04 A3025 RMK A01 T10081044  RH  077%=      5-min Rain = 0
KHES 081045Z 02007KT M01/M04 A3025 RMK A01 T10081043  RH  077%=      5-min Rain = 0
KHES 081050Z 02007KT M01/M04 A3025 RMK A01 T10081043  RH  078%=      5-min Rain = 0
KHES 081055Z 01007KT M01/M04 A3024 RMK A01 T10081042  RH  078%=      5-min Rain = 0
KHES 081100Z 02008KT M01/M04 A3024 RMK A01 T10081043  RH  078%=      5-min Rain = 0
KHES 081105Z 02008KT M01/M04 A3025 RMK A01 T10081044  RH  077%=      5-min Rain = 0
KHES 081110Z 01009KT M01/M04 A3025 RMK A01 T10091044  RH  077%=      5-min Rain = 0
KHES 081115Z 01008KT M01/M04 A3025 RMK A01 T10081043  RH  077%=      5-min Rain = 0
KHES 081120Z 01007KT M01/M04 A3025 RMK A01 T10081043  RH  077%=      5-min Rain = 0
KHES 081125Z 01008KT M01/M04 A3025 RMK A01 T10081043  RH  078%=      5-min Rain = 0
KHES 081130Z 01009KT M01/M04 A3025 RMK A01 T10081042  RH  078%=      5-min Rain = 0
KHES 081135Z 01008KT M01/M04 A3025 RMK A01 T10081041  RH  078%=      5-min Rain = 0
KHES 081140Z 02008KT M01/M04 A3025 RMK A01 T10081040  RH  079%=      5-min Rain = 0
KHES 081145Z 02007KT M01/M04 A3025 RMK A01 T10081040  RH  079%=      5-min Rain = 0
KHES 081150Z 02008KT M01/M04 A3025 RMK A01 T10071040  RH  079%=      5-min Rain = 0
KHES 081155Z 02008KT M01/M04 A3025 RMK A01 T10071040  RH  079%=      5-min Rain = 0
KHES 081200Z 02009KT M01/M04 A3025 RMK A01 T10071040  RH  079%=      5-min Rain = 0
KHES 081205Z 03008KT M01/M04 A3025 RMK A01 T10071040  RH  079%=      5-min Rain = 0
KHES 081210Z 02009KT M01/M04 A3025 RMK A01 T10071040  RH  079%=      5-min Rain = 0
KHES 081215Z 02008KT M01/M04 A3025 RMK A01 T10071040  RH  079%=      5-min Rain = 0
KHES 081220Z 02008KT M01/M04 A3025 RMK A01 T10081041  RH  079%=      5-min Rain = 0
KHES 081225Z 02008KT M01/M04 A3025 RMK A01 T10081041  RH  079%=      5-min Rain = 0
KHES 081230Z 02009KT M01/M04 A3025 RMK A01 T10081041  RH  079%=      5-min Rain = 0
KHES 081235Z 02009KT M01/M04 A3025 RMK A01 T10081041  RH  079%=      5-min Rain = 0
KHES 081240Z 02008KT M01/M04 A3025 RMK A01 T10081041  RH  079%=      5-min Rain = 0
KHES 081245Z 01008KT M01/M04 A3025 RMK A01 T10081042  RH  078%=      5-min Rain = 0
KHES 081250Z 01010KT M01/M04 A3025 RMK A01 T10081043  RH  078%=      5-min Rain = 0
KHES 081255Z 02009KT M01/M04 A3025 RMK A01 T10091044  RH  078%=      5-min Rain = 0
KHES 081300Z 02009KT M01/M04 A3025 RMK A01 T10091044  RH  077%=      5-min Rain = 0
KHES 081305Z 02011KT M01/M05 A3025 RMK A01 T10091045  RH  077%=      5-min Rain = 0
KHES 081310Z 02010KT M01/M05 A3025 RMK A01 T10091045  RH  077%=      5-min Rain = 0
KHES 081315Z 01011KT M01/M05 A3025 RMK A01 T10091045  RH  077%=      5-min Rain = 0
KHES 081320Z 01011KT M01/M05 A3025 RMK A01 T10101046  RH  077%=      5-min Rain = 0
KHES 081325Z 01011KT M01/M05 A3026 RMK A01 T10101046  RH  077%=      5-min Rain = 0
KHES 081330Z 01012KT M01/M05 A3026 RMK A01 T10101046  RH  077%=      5-min Rain = 0
KHES 081335Z 01012KT M01/M05 A3026 RMK A01 T10101046  RH  077%=      5-min Rain = 0
KHES 081340Z 01010KT M01/M05 A3026 RMK A01 T10091046  RH  077%=      5-min Rain = 0
KHES 081345Z 01011KT M01/M05 A3026 RMK A01 T10091046  RH  077%=      5-min Rain = 0
KHES 081350Z 01011KT M01/M05 A3026 RMK A01 T10091046  RH  077%=      5-min Rain = 0
KHES 081355Z 01010KT M01/M05 A3027 RMK A01 T10091045  RH  077%=      5-min Rain = 0
KHES 081400Z 02010KT M01/M05 A3027 RMK A01 T10091045  RH  076%=      5-min Rain = 0
KHES 081405Z 01010KT M01/M05 A3027 RMK A01 T10081045  RH  076%=      5-min Rain = 0
KHES 081410Z 02011KT M01/M05 A3027 RMK A01 T10081045  RH  076%=      5-min Rain = 0
KHES 081415Z 01009KT M01/M05 A3027 RMK A01 T10071045  RH  076%=      5-min Rain = 0
KHES 081420Z 01007KT M01/M04 A3027 RMK A01 T10061044  RH  076%=      5-min Rain = 0
KHES 081425Z 02008KT M01/M04 A3028 RMK A01 T10061044  RH  076%=      5-min Rain = 0
KHES 081430Z 02009KT M01/M05 A3028 RMK A01 T10071045  RH  076%=      5-min Rain = 0
KHES 081435Z 03008KT M01/M05 A3028 RMK A01 T10071045  RH  076%=      5-min Rain = 0
KHES 081440Z 03009KT M01/M05 A3028 RMK A01 T10071045  RH  076%=      5-min Rain = 0
KHES 081445Z 03008KT M01/M05 A3028 RMK A01 T10071045  RH  076%=      5-min Rain = 0
KHES 081450Z 03009KT M01/M05 A3029 RMK A01 T10081045  RH  076%=      5-min Rain = 0
KHES 081455Z 03008KT M01/M05 A3029 RMK A01 T10071045  RH  076%=      5-min Rain = 0
KHES 081500Z 04008KT M01/M04 A3029 RMK A01 T10071044  RH  076%=      5-min Rain = 0
KHES 081505Z 03009KT M01/M04 A3029 RMK A01 T10081044  RH  076%=      5-min Rain = 0
KHES 081510Z 03007KT M01/M04 A3029 RMK A01 T10071043  RH  077%=      5-min Rain = 0
KHES 081515Z 04006KT M01/M04 A303 RMK A01 T10051042  RH  077%=      5-min Rain = 0
KHES 081520Z 03008KT M01/M04 A303 RMK A01 T10061044  RH  076%=      5-min Rain = 0
KHES 081525Z 04006KT M01/M04 A303 RMK A01 T10061043  RH  077%=      5-min Rain = 0
KHES 081530Z 04007KT M01/M04 A303 RMK A01 T10061043  RH  076%=      5-min Rain = 0
KHES 081535Z 04007KT M01/M04 A303 RMK A01 T10061044  RH  076%=      5-min Rain = 0
KHES 081540Z 04007KT M01/M04 A303 RMK A01 T10061044  RH  076%=      5-min Rain = 0
KHES 081545Z 05006KT M01/M04 A303 RMK A01 T10061043  RH  076%=      5-min Rain = 0
KHES 081550Z 05007KT M01/M04 A303 RMK A01 T10051043  RH  076%=      5-min Rain = 0
KHES 081555Z 06007KT M00/M04 A303 RMK A01 T10041043  RH  075%=      5-min Rain = 0
KHES 081600Z 06006KT M00/M04 A303 RMK A01 T10041043  RH  075%=      5-min Rain = 0
KHES 081605Z 08005KT M00/M04 A303 RMK A01 T10021042  RH  075%=      5-min Rain = 0
KHES 081610Z 08005KT 00/04 A303 RMK A01 T00-00-41  RH  074%=      5-min Rain = 0
KHES 081615Z 08005KT 00/M04 A303 RMK A01 T00011042  RH  074%=      5-min Rain = 0
KHES 081620Z 08006KT 00/04 A3031 RMK A01 T00000-43  RH  073%=      5-min Rain = 0
KHES 081625Z 08006KT M00/M04 A3031 RMK A01 T10011044  RH  073%=      5-min Rain = 0
KHES 081630Z 05005KT M00/M04 A3031 RMK A01 T10011044  RH  073%=      5-min Rain = 0
KHES 081635Z 05004KT M00/M05 A3031 RMK A01 T10011045  RH  073%=      5-min Rain = 0
KHES 081640Z 05004KT M00/M05 A3031 RMK A01 T10011045  RH  072%=      5-min Rain = 0
KHES 081645Z 07003KT M00/M04 A3031 RMK A01 T10011044  RH  073%=      5-min Rain = 0
KHES 081650Z 05004KT 00/04 A3031 RMK A01 T00000-43  RH  073%=      5-min Rain = 0
KHES 081655Z 06004KT 00/M04 A3031 RMK A01 T00011043  RH  072%=      5-min Rain = 0
KHES 081700Z 08003KT 00/M04 A3031 RMK A01 T00021043  RH  072%=      5-min Rain = 0
KHES 081705Z 05003KT 00/M04 A3031 RMK A01 T00021044  RH  071%=      5-min Rain = 0
KHES 081710Z 09002KT 00/M05 A3031 RMK A01 T00031045  RH  071%=      5-min Rain = 0
KHES 081715Z 09002KT 00/M05 A303 RMK A01 T00031045  RH  071%=      5-min Rain = 0
KHES 081720Z 11002KT 00/M04 A303 RMK A01 T00041044  RH  070%=      5-min Rain = 0
KHES 081725Z 12002KT 01/M04 A303 RMK A01 T00061043  RH  070%=      5-min Rain = 0
KHES 081730Z 08003KT 01/M04 A303 RMK A01 T00071044  RH  069%=      5-min Rain = 0
KHES 081735Z 04002KT 01/M04 A303 RMK A01 T00071044  RH  069%=      5-min Rain = 0
KHES 081740Z 08002KT 01/M05 A303 RMK A01 T00071045  RH  069%=      5-min Rain = 0
KHES 081745Z 10003KT 01/M04 A303 RMK A01 T00081044  RH  069%=      5-min Rain = 0
KHES 081750Z 10004KT 01/M04 A3029 RMK A01 T00081044  RH  068%=      5-min Rain = 0
KHES 081755Z 03002KT 01/M04 A303 RMK A01 T00101044  RH  068%=      5-min Rain = 0
KHES 081800Z 04001KT 01/M04 A303 RMK A01 T00111044  RH  067%=      5-min Rain = 0
KHES 081805Z 06003KT 01/M05 A3029 RMK A01 T00101045  RH  067%=      5-min Rain = 0
KHES 081810Z 06002KT 01/M04 A3029 RMK A01 T00101043  RH  068%=      5-min Rain = 0
KHES 081815Z 03004KT 01/M04 A3029 RMK A01 T00131043  RH  067%=      5-min Rain = 0
KHES 081820Z 03002KT 01/M04 A3028 RMK A01 T00121043  RH  067%=      5-min Rain = 0
KHES 081825Z 03003KT 01/M04 A3028 RMK A01 T00141043  RH  066%=      5-min Rain = 0
KHES 081830Z 05004KT 01/M04 A3028 RMK A01 T00141044  RH  066%=      5-min Rain = 0
KHES 081835Z 04003KT 01/M04 A3028 RMK A01 T00131043  RH  066%=      5-min Rain = 0
KHES 081840Z 09002KT 01/M04 A3028 RMK A01 T00131044  RH  066%=      5-min Rain = 0
KHES 081845Z 07003KT 02/M04 A3028 RMK A01 T00151042  RH  066%=      5-min Rain = 0
KHES 081850Z 02003KT 02/M04 A3027 RMK A01 T00161043  RH  065%=      5-min Rain = 0
KHES 081855Z 07001KT 02/M04 A3027 RMK A01 T00181041  RH  065%=      5-min Rain = 0
KHES 081900Z 00004KT 02/M04 A3027 RMK A01 T00191042  RH  064%=      5-min Rain = 0
KHES 081905Z 00003KT 02/M04 A3027 RMK A01 T00181044  RH  064%=      5-min Rain = 0
KHES 081910Z 36004KT 02/M04 A3027 RMK A01 T00171044  RH  064%=      5-min Rain = 0
KHES 081915Z 33001KT 02/M04 A3026 RMK A01 T00171044  RH  064%=      5-min Rain = 0
KHES 081920Z 28001G6KT 02/M04 A3026 RMK A01 T00231040  RH  063%=      5-min Rain = 0
KHES 081925Z 35005KT 03/M04 A3026 RMK A01 T00311041  RH  059%=      5-min Rain = 0
KHES 081930Z 35005KT 03/M04 A3025 RMK A01 T00321043  RH  058%=      5-min Rain = 0
KHES 081935Z 30005KT 03/M05 A3025 RMK A01 T00291047  RH  057%=      5-min Rain = 0
KHES 081940Z 32002KT 03/M05 A3025 RMK A01 T00271047  RH  059%=      5-min Rain = 0
KHES 081945Z 33002KT 03/M04 A3024 RMK A01 T00311044  RH  058%=      5-min Rain = 0
KHES 081950Z 04001KT 03/M04 A3024 RMK A01 T00331044  RH  057%=      5-min Rain = 0
KHES 081955Z 08002KT 04/M04 A3023 RMK A01 T00381041  RH  056%=      5-min Rain = 0
KHES 082000Z 07004KT 04/M04 A3023 RMK A01 T00371043  RH  056%=      5-min Rain = 0
KHES 082005Z 13002KT 04/M04 A3023 RMK A01 T00351044  RH  057%=      5-min Rain = 0
KHES 082010Z 02002KT 04/M04 A3023 RMK A01 T00421040  RH  055%=      5-min Rain = 0
KHES 082015Z 01001KT 04/M04 A3023 RMK A01 T00401043  RH  055%=      5-min Rain = 0
KHES 082020Z 04005KT 04/M04 A3023 RMK A01 T00401043  RH  055%=      5-min Rain = 0
KHES 082025Z 08003KT 04/M04 A3022 RMK A01 T00381044  RH  055%=      5-min Rain = 0
KHES 082030Z 03003KT 04/M04 A3023 RMK A01 T00411042  RH  055%=      5-min Rain = 0
KHES 082035Z 35004KT 04/M04 A3023 RMK A01 T00421042  RH  055%=      5-min Rain = 0
KHES 082040Z 03002KT 04/M04 A3022 RMK A01 T00411044  RH  054%=      5-min Rain = 0
KHES 082045Z 33003KT 04/M04 A3022 RMK A01 T00421043  RH  054%=      5-min Rain = 0
KHES 082050Z 29004KT 04/M04 A3022 RMK A01 T00411044  RH  054%=      5-min Rain = 0
KHES 082055Z 26003KT 04/M04 A3022 RMK A01 T00441042  RH  054%=      5-min Rain = 0
KHES 082100Z 26004KT 05/M04 A3022 RMK A01 T00471042  RH  053%=      5-min Rain = 0
KHES 082105Z 26003KT 04/M04 A3022 RMK A01 T00441044  RH  053%=      5-min Rain = 0
KHES 082110Z 16001KT 05/M04 A3021 RMK A01 T00481040  RH  053%=      5-min Rain = 0
KHES 082115Z 18002KT 05/M04 A3021 RMK A01 T00521040  RH  051%=      5-min Rain = 0
KHES 082120Z 26002KT 05/M04 A3021 RMK A01 T00501044  RH  051%=      5-min Rain = 0
KHES 082125Z 20003KT 05/M04 A3021 RMK A01 T00501042  RH  052%=      5-min Rain = 0
KHES 082130Z 09002KT 05/M04 A3021 RMK A01 T00501042  RH  052%=      5-min Rain = 0
KHES 082135Z 34001KT 05/M04 A3021 RMK A01 T00541038  RH  051%=      5-min Rain = 0
KHES 082140Z 01002KT 06/M04 A3021 RMK A01 T00551042  RH  050%=      5-min Rain = 0
KHES 082145Z 06001KT 05/M04 A3021 RMK A01 T00511042  RH  051%=      5-min Rain = 0
KHES 082150Z 02003KT 05/M04 A3021 RMK A01 T00541039  RH  051%=      5-min Rain = 0
KHES 082155Z 03002KT 05/M04 A3021 RMK A01 T00521042  RH  051%=      5-min Rain = 0
KHES 082200Z 02001KT 05/M04 A3021 RMK A01 T00521042  RH  051%=      5-min Rain = 0
KHES 082205Z 18002KT 05/M04 A3021 RMK A01 T00511043  RH  051%=      5-min Rain = 0
KHES 082210Z 20001KT 06/M04 A302 RMK A01 T00551040  RH  051%=      5-min Rain = 0
KHES 082215Z 16001KT 06/M04 A3021 RMK A01 T00591041  RH  049%=      5-min Rain = 0
KHES 082220Z 19001KT 06/M04 A3021 RMK A01 T00551044  RH  049%=      5-min Rain = 0
KHES 082225Z 13001KT 06/M04 A3021 RMK A01 T00581041  RH  049%=      5-min Rain = 0
KHES 082230Z 03001KT 06/M04 A3021 RMK A01 T00571042  RH  049%=      5-min Rain = 0
KHES 082235Z 35000KT 06/M04 A3021 RMK A01 T00561041  RH  050%=      5-min Rain = 0
KHES 082240Z 19001KT 06/M04 A3021 RMK A01 T00581040  RH  050%=      5-min Rain = 0
KHES 082245Z 17001KT 06/M04 A3021 RMK A01 T00591041  RH  049%=      5-min Rain = 0
KHES 082250Z 17002KT 06/M04 A3021 RMK A01 T00581042  RH  049%=      5-min Rain = 0
KHES 082255Z 18001KT 06/M04 A3021 RMK A01 T00571040  RH  050%=      5-min Rain = 0
KHES 082300Z 13001KT 06/M04 A3021 RMK A01 T00561043  RH  049%=      5-min Rain = 0
KHES 082305Z 13002KT 05/M04 A3021 RMK A01 T00511043  RH  051%=      5-min Rain = 0
KHES 082310Z 14001KT 05/M04 A3021 RMK A01 T00491042  RH  052%=      5-min Rain = 0
KHES 082315Z 08002KT 05/M04 A3021 RMK A01 T00471043  RH  052%=      5-min Rain = 0
KHES 082320Z 07001KT 04/M04 A3021 RMK A01 T00441044  RH  053%=      5-min Rain = 0
KHES 082325Z 09002KT 04/M05 A3021 RMK A01 T00421045  RH  053%=      5-min Rain = 0
KHES 082330Z 09002KT 04/M05 A3021 RMK A01 T00391046  RH  054%=      5-min Rain = 0
KHES 082335Z 09004KT 03/M05 A3021 RMK A01 T00301046  RH  057%=      5-min Rain = 0
KHES 082340Z 10004KT 03/M04 A3021 RMK A01 T00311044  RH  058%=      5-min Rain = 0
KHES 082345Z 11004KT 03/M05 A3022 RMK A01 T00281045  RH  059%=      5-min Rain = 0
KHES 082350Z 10004KT 03/M04 A3022 RMK A01 T00281044  RH  059%=      5-min Rain = 0
KHES 082355Z 11003KT 03/M05 A3022 RMK A01 T00271045  RH  059%=      5-min Rain = 0
KHES 090000Z 11003KT 03/M05 A3022 RMK A01 T00271045  RH  059%=      5-min Rain = 0
KHES 090005Z 11003KT 03/M05 A3022 RMK A01 T00281045  RH  059%=      5-min Rain = 0
KHES 090010Z 10003KT 03/M05 A3023 RMK A01 T00281045  RH  059%=      5-min Rain = 0
KHES 090015Z 10003KT 03/M05 A3022 RMK A01 T00271045  RH  059%=      5-min Rain = 0
KHES 090020Z 10003KT 03/M05 A3022 RMK A01 T00261045  RH  059%=      5-min Rain = 0
KHES 090025Z 12003KT 03/M05 A3022 RMK A01 T00261045  RH  060%=      5-min Rain = 0
KHES 090030Z 13002KT 03/M05 A3023 RMK A01 T00251045  RH  060%=      5-min Rain = 0
KHES 090035Z 13002KT 03/M05 A3023 RMK A01 T00251045  RH  060%=      5-min Rain = 0
KHES 090040Z 12003KT 02/M05 A3023 RMK A01 T00241045  RH  060%=      5-min Rain = 0
KHES 090045Z 11003KT 02/M05 A3023 RMK A01 T00231045  RH  061%=      5-min Rain = 0
KHES 090050Z 11003KT 02/M05 A3023 RMK A01 T00201046  RH  062%=      5-min Rain = 0
KHES 090055Z 10003KT 02/M05 A3023 RMK A01 T00201046  RH  062%=      5-min Rain = 0
KHES 090100Z 10003KT 02/M05 A3024 RMK A01 T00191046  RH  062%=      5-min Rain = 0
KHES 090105Z 10004KT 02/M05 A3024 RMK A01 T00171047  RH  062%=      5-min Rain = 0
KHES 090110Z 10003KT 01/M05 A3024 RMK A01 T00141048  RH  063%=      5-min Rain = 0
KHES 090115Z 10003KT 01/M05 A3024 RMK A01 T00141048  RH  064%=      5-min Rain = 0
KHES 090120Z 10004KT 01/M05 A3024 RMK A01 T00121049  RH  064%=      5-min Rain = 0
KHES 090125Z 09004KT 01/M05 A3024 RMK A01 T00101050  RH  064%=      5-min Rain = 0
KHES 090130Z 10003KT 01/M05 A3024 RMK A01 T00101049  RH  065%=      5-min Rain = 0
KHES 090135Z 11003KT 01/M05 A3024 RMK A01 T00111049  RH  065%=      5-min Rain = 0
KHES 090140Z 11003KT 01/M05 A3024 RMK A01 T00111048  RH  065%=      5-min Rain = 0
KHES 090145Z 11003KT 01/M05 A3024 RMK A01 T00101049  RH  065%=      5-min Rain = 0
KHES 090150Z 10003KT 01/M05 A3024 RMK A01 T00091049  RH  065%=      5-min Rain = 0
KHES 090155Z 10002KT 01/M05 A3024 RMK A01 T00061051  RH  066%=      5-min Rain = 0
KHES 090200Z 10002KT 00/M05 A3024 RMK A01 T00041051  RH  067%=      5-min Rain = 0
KHES 090205Z 10002KT 00/M05 A3025 RMK A01 T00021052  RH  067%=      5-min Rain = 0
KHES 090210Z 10001KT M00/M06 A3025 RMK A01 T10011055  RH  067%=      5-min Rain = 0
KHES 090215Z 12001KT M00/M05 A3025 RMK A01 T10041054  RH  069%=      5-min Rain = 0
KHES 090220Z 13001KT M00/M05 A3025 RMK A01 T10041053  RH  070%=      5-min Rain = 0
KHES 090225Z 15001KT M01/M05 A3025 RMK A01 T10051053  RH  070%=      5-min Rain = 0
KHES 090230Z 16001KT M01/M06 A3026 RMK A01 T10071055  RH  070%=      5-min Rain = 0
KHES 090235Z 16001KT M02/M06 A3026 RMK A01 T10151060  RH  072%=      5-min Rain = 0
KHES 090240Z 11000KT M02/M06 A3026 RMK A01 T10161057  RH  073%=      5-min Rain = 0
KHES 090245Z 11000KT M02/M06 A3026 RMK A01 T10171058  RH  074%=      5-min Rain = 0
KHES 090250Z 00000KT M02/M06 A3026 RMK A01 T10221062  RH  074%=      5-min Rain = 0
KHES 090255Z 00000KT M03/M07 A3026 RMK A01 T10341072  RH  075%=      5-min Rain = 0
KHES 090300Z 23001KT M04/M07 A3026 RMK A01 T10351070  RH  077%=      5-min Rain = 0
KHES 090305Z 23003KT M05/M08 A3026 RMK A01 T10471082  RH  077%=      5-min Rain = 0
KHES 090310Z 24003KT M05/M08 A3026 RMK A01 T10511083  RH  078%=      5-min Rain = 0
KHES 090315Z 24004KT M05/M08 A3026 RMK A01 T10531082  RH  080%=      5-min Rain = 0
KHES 090320Z 25004KT M06/M08 A3026 RMK A01 T10551083  RH  081%=      5-min Rain = 0
KHES 090325Z 25003KT M06/M08 A3027 RMK A01 T10571084  RH  081%=      5-min Rain = 0
KHES 090330Z 25003KT M06/M08 A3027 RMK A01 T10581084  RH  082%=      5-min Rain = 0
KHES 090335Z 25003KT M05/M08 A3027 RMK A01 T10541078  RH  083%=      5-min Rain = 0
KHES 090340Z 26004KT M05/M08 A3027 RMK A01 T10521078  RH  082%=      5-min Rain = 0
KHES 090345Z 26004KT M06/M08 A3027 RMK A01 T10571083  RH  082%=      5-min Rain = 0
KHES 090350Z 26004KT M06/M09 A3027 RMK A01 T10601085  RH  082%=      5-min Rain = 0
KHES 090355Z 27005KT M06/M08 A3027 RMK A01 T10611084  RH  084%=      5-min Rain = 0
KHES 090400Z 27004KT M05/M07 A3027 RMK A01 T10511073  RH  085%=      5-min Rain = 0
KHES 090405Z 27004KT M05/M07 A3028 RMK A01 T10491072  RH  084%=      5-min Rain = 0
KHES 090410Z 27005KT M05/M08 A3027 RMK A01 T10511075  RH  083%=      5-min Rain = 0
KHES 090415Z 27004KT M06/M08 A3027 RMK A01 T10571082  RH  083%=      5-min Rain = 0
KHES 090420Z 26005KT M06/M09 A3028 RMK A01 T10611085  RH  083%=      5-min Rain = 0
KHES 090425Z 26005KT M06/M08 A3028 RMK A01 T10591080  RH  085%=      5-min Rain = 0
KHES 090430Z 27005KT M06/M08 A3028 RMK A01 T10581080  RH  084%=      5-min Rain = 0
KHES 090435Z 27005KT M06/M08 A3028 RMK A01 T10601083  RH  084%=      5-min Rain = 0
KHES 090440Z 27005KT M06/M08 A3028 RMK A01 T10611082  RH  085%=      5-min Rain = 0
KHES 090445Z 27005KT M06/M08 A3028 RMK A01 T10601080  RH  086%=      5-min Rain = 0
KHES 090450Z 27005KT M06/M08 A3028 RMK A01 T10571077  RH  086%=      5-min Rain = 0
KHES 090455Z 28004KT M06/M08 A3029 RMK A01 T10571077  RH  086%=      5-min Rain = 0
KHES 090500Z 27004KT M06/M08 A3028 RMK A01 T10571077  RH  086%=      5-min Rain = 0
KHES 090505Z 28004KT M06/M08 A3028 RMK A01 T10581078  RH  086%=      5-min Rain = 0
KHES 090510Z 28004KT M06/M08 A3029 RMK A01 T10591079  RH  085%=      5-min Rain = 0
KHES 090515Z 29004KT M06/M08 A3028 RMK A01 T10591079  RH  085%=      5-min Rain = 0
KHES 090520Z 29004KT M06/M08 A3028 RMK A01 T10601080  RH  085%=      5-min Rain = 0
KHES 090525Z 29004KT M06/M08 A3028 RMK A01 T10591079  RH  086%=      5-min Rain = 0
KHES 090530Z 30005KT M06/M08 A3028 RMK A01 T10561075  RH  087%=      5-min Rain = 0
KHES 090535Z 30004KT M06/M08 A3028 RMK A01 T10561075  RH  086%=      5-min Rain = 0
KHES 090540Z 31003KT M06/M08 A3028 RMK A01 T10571077  RH  086%=      5-min Rain = 0
KHES 090545Z 30002KT M06/M08 A3028 RMK A01 T10571076  RH  086%=      5-min Rain = 0
KHES 090550Z 29002KT M05/M07 A3028 RMK A01 T10531071  RH  087%=      5-min Rain = 0
KHES 090555Z 30003KT M05/M07 A3028 RMK A01 T10511068  RH  088%=      5-min Rain = 0

Page generated in 0.0127 seconds.